This is the latest recevied weather packets stored in our database for station/object KC5DP. If no packets are shown the sender has not sent any weather packets the latest 10 day(s).
| Time | Temp. | Humidity | Pressure | Rain* | Wind** | Luminosity | Snow |
|---|---|---|---|---|---|---|---|
| 1777985809 | 17.22° C | 99% | 1012.1 hPa | 0 mm | - | 104 W/m² | - |
| 1777985506 | 17.22° C | 99% | 1012 hPa | 0 mm | - | 111 W/m² | - |
| 1777985202 | 16.67° C | 99% | 1012 hPa | 0 mm | - | 99 W/m² | - |
| 1777984899 | 15.56° C | 99% | 1012 hPa | 0 mm | - | 66 W/m² | - |
| 1777984595 | 15.56° C | 99% | 1012 hPa | 0 mm | - | 52 W/m² | - |
| 1777984292 | 15.56° C | 99% | 1011.9 hPa | 0 mm | - | 58 W/m² | - |
| 1777983988 | 15° C | 99% | 1012.1 hPa | 0 mm | - | 64 W/m² | - |
| 1777983686 | 14.44° C | 99% | 1012 hPa | 0 mm | - | 42 W/m² | - |
| 1777983382 | 14.44° C | 99% | 1011.9 hPa | 0 mm | - | 48 W/m² | - |
| 1777983079 | 14.44° C | 99% | 1011.8 hPa | 0 mm | - | 40 W/m² | - |
| 1777982775 | 13.89° C | 99% | 1011.7 hPa | 0 mm | - | 36 W/m² | - |
| 1777982471 | 13.89° C | 99% | 1011.8 hPa | 0 mm | - | 27 W/m² | - |
| 1777982166 | 13.89° C | 99% | 1011.8 hPa | 0 mm | - | 24 W/m² | - |
| 1777981864 | 13.33° C | 99% | 1011.6 hPa | 0 mm | - | 21 W/m² | - |
| 1777981560 | 13.33° C | 99% | 1011.7 hPa | 0 mm | - | 19 W/m² | - |
| 1777981256 | 13.33° C | 99% | 1011.8 hPa | 0 mm | - | 16 W/m² | - |
| 1777980953 | 13.33° C | 99% | 1011.5 hPa | 0 mm | - | 11 W/m² | - |
| 1777980650 | 13.33° C | 99% | 1011.6 hPa | 0 mm | - | 7 W/m² | - |
| 1777980346 | 12.78° C | 99% | 1011.4 hPa | 0 mm | - | 5 W/m² | - |
| 1777980045 | 12.78° C | 99% | 1011.6 hPa | 0 mm | - | 3 W/m² | - |
| 1777979744 | 12.78° C | 99% | 1011.4 hPa | 0 mm | - | 2 W/m² | - |
| 1777979440 | 12.78° C | 99% | 1011.5 hPa | 0 mm | - | 1 W/m² | - |
| 1777979137 | 12.78° C | 99% | 1011.3 hPa | 0 mm | - | 0 W/m² | - |
| 1777978834 | 12.78° C | 99% | 1011.4 hPa | 0 mm | - | 0 W/m² | - |
| 1777978530 | 12.78° C | 99% | 1011.3 hPa | 0 mm | - | 0 W/m² | - |
* Rain latest hour (hover to see other rain measurements)
** Current wind speed in m/s (hover to see current wind gust speed)